Time;durP1;ratioP1;P1;durP2;ratioP2;P2;SDS_P1;SDS_P2;PMS_P1;PMS_P2;Temp;Humidity;BMP_temperature;BMP_pressure;BME280_temperature;BME280_humidity;BME280_pressure;Samples;Min_cycle;Max_cycle;Signal;HPM_P1;HPM_P2
2021/06/16 00:09:26;;;;;;;6.93;2.03;;;21.10;51.70;;;;;;20947673;28;20044;-18
2021/06/16 00:19:26;;;;;;;3.25;1.10;;;21.10;51.70;;;;;;20964876;28;20032;-18
2021/06/16 00:29:27;;;;;;;4.38;1.02;;;21.10;51.80;;;;;;20944068;28;20017;-21
2021/06/16 00:39:28;;;;;;;7.43;1.20;;;21.10;51.80;;;;;;20937693;28;20670;-18
2021/06/16 00:49:29;;;;;;;4.00;1.45;;;21.10;51.70;;;;;;20937201;28;20508;-18
2021/06/16 00:59:50;;;;;;;3.88;1.45;;;21.10;51.60;;;;;;20937149;28;20036;-18
2021/06/16 01:10:03;;;;;;;6.55;1.50;;;21.10;51.60;;;;;;20935804;23;20109;-20
2021/06/16 01:20:25;;;;;;;7.55;1.67;;;21.10;51.50;;;;;;20857737;28;20116;-19
2021/06/16 01:30:29;;;;;;;5.15;1.48;;;21.00;51.50;;;;;;20889578;28;20481;-20
2021/06/16 01:40:31;;;;;;;5.82;1.20;;;21.00;51.60;;;;;;20902452;28;20090;-19
2021/06/16 01:50:32;;;;;;;3.90;1.38;;;21.00;51.60;;;;;;20889084;28;20025;-20
2021/06/16 02:00:37;;;;;;;2.35;1.13;;;20.90;51.70;;;;;;20881735;28;20072;-19
2021/06/16 02:10:46;;;;;;;8.27;1.52;;;21.00;52.20;;;;;;20861272;28;20041;-19
2021/06/16 02:20:47;;;;;;;4.07;1.27;;;21.10;52.30;;;;;;20866488;28;20033;-19
2021/06/16 02:30:48;;;;;;;6.85;1.75;;;21.00;52.40;;;;;;20835830;28;20022;-19
2021/06/16 02:40:49;;;;;;;7.10;1.33;;;21.00;52.20;;;;;;20859421;28;20028;-19
2021/06/16 02:50:51;;;;;;;6.40;1.80;;;21.00;52.30;;;;;;20871982;28;20469;-19
2021/06/16 03:00:59;;;;;;;9.68;2.85;;;21.00;52.20;;;;;;20872572;28;20037;-19
2021/06/16 03:11:01;;;;;;;5.10;1.87;;;21.00;52.20;;;;;;20866640;28;20029;-20
2021/06/16 03:21:02;;;;;;;2.25;1.23;;;21.00;52.10;;;;;;20872753;28;20417;-19
2021/06/16 03:31:04;;;;;;;3.20;1.40;;;21.00;52.30;;;;;;20871438;28;20289;-20
2021/06/16 03:41:06;;;;;;;5.13;1.42;;;20.90;52.20;;;;;;20867752;28;20474;-20
2021/06/16 03:51:07;;;;;;;3.13;1.58;;;20.90;52.30;;;;;;20875744;28;20071;-21
2021/06/16 04:01:15;;;;;;;4.10;1.90;;;20.90;52.30;;;;;;20873729;28;20027;-21
2021/06/16 04:11:16;;;;;;;4.43;1.60;;;20.90;52.40;;;;;;20892752;28;20476;-19
2021/06/16 04:21:16;;;;;;;5.32;2.00;;;20.90;52.50;;;;;;20887971;28;20044;-19
2021/06/16 04:31:17;;;;;;;4.43;1.60;;;20.80;52.50;;;;;;20895769;28;20408;-21
2021/06/16 04:41:18;;;;;;;2.20;1.50;;;20.90;52.60;;;;;;20891338;28;20044;-19
2021/06/16 04:51:18;;;;;;;4.03;1.40;;;20.90;52.60;;;;;;20904922;28;20483;-20
2021/06/16 05:01:19;;;;;;;8.10;1.73;;;20.90;52.40;;;;;;20907020;28;20036;-20
2021/06/16 05:11:20;;;;;;;5.28;1.80;;;20.90;52.30;;;;;;20890552;28;20040;-20
2021/06/16 05:21:21;;;;;;;6.70;1.92;;;20.90;52.20;;;;;;20863374;28;20041;-20
2021/06/16 05:31:21;;;;;;;6.72;2.67;;;20.80;52.20;;;;;;20865512;28;20105;-20
2021/06/16 05:41:22;;;;;;;13.03;2.33;;;20.80;52.10;;;;;;20898417;28;20032;-20
2021/06/16 05:51:23;;;;;;;28.45;7.35;;;20.80;52.20;;;;;;20905072;28;20458;-19
2021/06/16 06:01:23;;;;;;;15.48;5.13;;;20.80;52.60;;;;;;20889641;28;20029;-20
2021/06/16 06:11:24;;;;;;;10.20;4.82;;;20.80;52.50;;;;;;20894005;28;20037;-20
2021/06/16 06:21:30;;;;;;;7.47;2.57;;;20.90;52.50;;;;;;20817723;28;20027;-20
2021/06/16 06:31:31;;;;;;;9.38;2.00;;;20.80;52.50;;;;;;20875572;28;20029;-21
2021/06/16 06:41:32;;;;;;;8.20;2.92;;;20.80;52.70;;;;;;20910240;28;20029;-20
2021/06/16 06:51:32;;;;;;;8.77;2.78;;;20.80;52.80;;;;;;20889845;28;20040;-20
2021/06/16 07:01:33;;;;;;;15.95;3.95;;;20.80;53.20;;;;;;20918396;28;20043;-21
2021/06/16 07:11:34;;;;;;;9.13;2.33;;;20.90;54.40;;;;;;20892916;28;20123;-20
2021/06/16 07:21:36;;;;;;;14.63;2.83;;;20.90;54.30;;;;;;20868326;28;20036;-20
2021/06/16 07:31:37;;;;;;;7.50;2.45;;;20.80;54.50;;;;;;20849747;28;20119;-20
2021/06/16 07:41:37;;;;;;;9.77;3.28;;;20.90;54.40;;;;;;20871396;28;20517;-21
2021/06/16 07:51:38;;;;;;;5.65;2.05;;;21.00;54.50;;;;;;20839174;28;20036;-21
2021/06/16 08:01:40;;;;;;;4.40;2.13;;;21.00;54.80;;;;;;20869632;28;20072;-22
2021/06/16 08:11:40;;;;;;;18.30;3.40;;;21.10;55.00;;;;;;20861071;28;20037;-20
2021/06/16 08:21:42;;;;;;;6.15;2.35;;;21.10;55.40;;;;;;20880213;28;20091;-21
2021/06/16 08:31:43;;;;;;;4.72;1.67;;;21.20;55.70;;;;;;20892434;28;20033;-21
2021/06/16 08:41:43;;;;;;;4.45;2.03;;;21.30;55.60;;;;;;20901460;28;20036;-20
2021/06/16 08:51:44;;;;;;;6.22;2.20;;;21.30;55.70;;;;;;20904101;28;20108;-20
2021/06/16 09:01:44;;;;;;;5.45;1.60;;;21.40;55.70;;;;;;20891635;28;20041;-21
2021/06/16 09:11:47;;;;;;;4.70;2.17;;;21.40;55.70;;;;;;20883121;28;20502;-21
2021/06/16 09:21:49;;;;;;;4.20;1.77;;;21.40;55.70;;;;;;20903193;28;20040;-21
2021/06/16 09:31:50;;;;;;;7.97;2.13;;;21.40;55.70;;;;;;20894768;23;20045;-20
2021/06/16 09:42:14;;;;;;;6.13;1.73;;;21.40;55.80;;;;;;20898652;28;20444;-20
2021/06/16 09:52:36;;;;;;;6.65;2.20;;;21.40;55.90;;;;;;20888584;28;20060;-21
2021/06/16 10:02:40;;;;;;;5.13;1.85;;;21.40;55.90;;;;;;20894118;28;20064;-20
2021/06/16 10:12:43;;;;;;;7.22;2.30;;;21.40;56.00;;;;;;20892422;28;20037;-19
2021/06/16 10:22:44;;;;;;;4.55;1.73;;;21.40;56.10;;;;;;20890402;28;20029;-20
2021/06/16 10:32:48;;;;;;;5.78;1.83;;;21.40;56.10;;;;;;20902227;28;20163;-20
2021/06/16 10:43:09;;;;;;;8.27;1.90;;;21.40;56.20;;;;;;20893730;28;20493;-20
2021/06/16 10:53:09;;;;;;;4.50;1.83;;;21.50;56.30;;;;;;20903064;28;20044;-20
2021/06/16 11:03:12;;;;;;;5.32;2.17;;;21.40;56.30;;;;;;20885807;28;20060;-20
2021/06/16 11:13:40;;;;;;;5.90;2.00;;;21.40;56.30;;;;;;20894605;28;20400;-20
2021/06/16 11:23:49;;;;;;;3.40;1.80;;;21.50;56.40;;;;;;20891347;28;20488;-20
2021/06/16 11:33:50;;;;;;;2.42;1.60;;;21.50;56.40;;;;;;20889271;28;20040;-20
2021/06/16 11:43:52;;;;;;;4.45;1.77;;;21.50;56.50;;;;;;20888926;28;20028;-20
2021/06/16 12:04:22;;;;;;;3.60;1.75;;;21.60;56.50;;;;;;20904733;28;20602;-20
2021/06/16 12:14:23;;;;;;;2.10;1.00;;;21.60;56.50;;;;;;20908275;28;20565;-19
2021/06/16 12:24:45;;;;;;;2.33;1.60;;;21.60;56.50;;;;;;20907548;28;20025;-19
2021/06/16 12:44:49;;;;;;;2.72;1.67;;;21.60;56.60;;;;;;20906283;28;20032;-21
2021/06/16 12:54:51;;;;;;;2.30;1.58;;;21.60;56.60;;;;;;20905856;28;20523;-19
2021/06/16 13:04:56;;;;;;;3.50;1.55;;;21.70;56.60;;;;;;20904014;28;20033;-20
2021/06/16 13:15:03;;;;;;;1.73;1.40;;;21.70;56.60;;;;;;20902983;28;20659;-21
2021/06/16 13:25:05;;;;;;;1.42;1.25;;;21.70;56.70;;;;;;20903268;28;20086;-20
2021/06/16 13:35:06;;;;;;;2.38;1.50;;;21.70;56.90;;;;;;20901499;28;20033;-20
2021/06/16 13:45:08;;;;;;;5.60;1.92;;;21.70;57.00;;;;;;20912504;28;20118;-20
2021/06/16 13:55:09;;;;;;;2.38;1.65;;;21.70;56.90;;;;;;20910640;28;20352;-21
2021/06/16 14:05:11;;;;;;;8.32;2.45;;;21.80;57.00;;;;;;20817737;28;20065;-21
2021/06/16 14:15:12;;;;;;;3.47;1.70;;;21.80;57.00;;;;;;20817146;28;20030;-21
2021/06/16 14:25:13;;;;;;;3.40;2.08;;;21.70;56.90;;;;;;20853704;28;20032;-20
2021/06/16 14:35:14;;;;;;;5.47;1.92;;;21.70;57.00;;;;;;20875898;28;20075;-21
2021/06/16 14:45:18;;;;;;;3.33;1.88;;;21.70;57.00;;;;;;20879608;28;20087;-21
2021/06/16 14:55:18;;;;;;;2.10;1.23;;;21.80;57.00;;;;;;20883778;28;20025;-21
2021/06/16 15:05:20;;;;;;;2.92;1.92;;;21.80;57.00;;;;;;20884578;28;20098;-21
2021/06/16 15:15:20;;;;;;;2.90;1.42;;;21.80;56.90;;;;;;20893177;28;20080;-20
2021/06/16 15:25:21;;;;;;;3.10;1.90;;;21.80;57.00;;;;;;20889199;28;20048;-20
2021/06/16 15:35:24;;;;;;;3.22;1.70;;;21.80;57.00;;;;;;20887019;22;20492;-20
2021/06/16 15:45:25;;;;;;;3.15;1.73;;;21.90;56.90;;;;;;20883620;28;20024;-20
2021/06/16 15:55:26;;;;;;;4.50;1.73;;;21.90;56.80;;;;;;20896141;28;20041;-20
2021/06/16 16:05:27;;;;;;;4.00;1.70;;;21.90;56.90;;;;;;20910888;28;20469;-21
2021/06/16 16:15:28;;;;;;;4.40;2.00;;;22.00;56.90;;;;;;20897167;28;20027;-20
2021/06/16 16:25:29;;;;;;;6.03;2.50;;;22.00;56.90;;;;;;20909195;28;20021;-20
2021/06/16 16:35:30;;;;;;;6.43;2.60;;;22.10;56.80;;;;;;20907809;28;20550;-21
2021/06/16 16:45:30;;;;;;;3.50;1.98;;;22.20;56.70;;;;;;20893187;28;20040;-19
2021/06/16 16:55:31;;;;;;;9.63;7.23;;;22.40;56.50;;;;;;20873149;28;20025;-20
2021/06/16 17:05:32;;;;;;;15.95;14.27;;;22.40;56.60;;;;;;20852773;28;20029;-21
2021/06/16 17:15:32;;;;;;;18.37;16.43;;;22.50;56.80;;;;;;20835594;28;20029;-21
2021/06/16 17:25:33;;;;;;;21.63;19.48;;;22.40;57.00;;;;;;20865951;28;20490;-21
2021/06/16 17:35:33;;;;;;;22.07;19.70;;;22.40;57.50;;;;;;20863686;28;20102;-21
2021/06/16 17:45:34;;;;;;;24.10;21.70;;;22.30;57.80;;;;;;20854524;28;20033;-21
2021/06/16 17:55:35;;;;;;;23.63;21.27;;;22.30;57.80;;;;;;20856267;28;20482;-21
2021/06/16 18:05:36;;;;;;;22.63;20.42;;;22.20;57.80;;;;;;20853991;28;21022;-21
2021/06/16 18:15:38;;;;;;;24.83;22.33;;;22.20;57.80;;;;;;20857787;28;20030;-21
2021/06/16 18:25:40;;;;;;;23.27;21.05;;;22.20;57.90;;;;;;20868971;28;20033;-21
2021/06/16 18:35:41;;;;;;;23.25;20.73;;;22.20;58.10;;;;;;20866534;28;20021;-21
2021/06/16 18:45:41;;;;;;;23.55;21.25;;;22.20;58.10;;;;;;20870185;28;20120;-20
2021/06/16 18:55:42;;;;;;;23.88;21.02;;;22.10;58.50;;;;;;20871993;28;20094;-19
2021/06/16 19:05:44;;;;;;;21.58;19.52;;;22.10;58.40;;;;;;20869341;28;20039;-21
2021/06/16 19:15:48;;;;;;;23.20;20.88;;;22.10;58.30;;;;;;20885093;28;20037;-20
2021/06/16 19:25:48;;;;;;;23.65;20.05;;;22.10;58.20;;;;;;20879840;28;20025;-21
2021/06/16 19:35:52;;;;;;;21.17;19.15;;;22.00;58.70;;;;;;20880254;28;20531;-21
2021/06/16 19:45:52;;;;;;;20.63;18.52;;;22.00;58.20;;;;;;20889276;28;20032;-21
2021/06/16 19:56:01;;;;;;;20.50;18.42;;;22.00;58.20;;;;;;20886205;28;20083;-20
2021/06/16 20:06:01;;;;;;;21.00;18.30;;;22.00;58.30;;;;;;20863678;28;20032;-20
2021/06/16 20:16:02;;;;;;;22.23;19.10;;;22.00;58.70;;;;;;20870392;28;20025;-20
2021/06/16 20:26:03;;;;;;;30.90;20.50;;;22.00;59.10;;;;;;20866110;28;20041;-22
2021/06/16 20:36:04;;;;;;;25.55;19.70;;;22.00;60.30;;;;;;20860762;28;20582;-21
2021/06/16 20:46:05;;;;;;;23.48;19.08;;;22.10;60.60;;;;;;20884433;28;20028;-21
2021/06/16 20:56:06;;;;;;;19.23;17.23;;;22.10;60.50;;;;;;20884423;28;20583;-21
2021/06/16 21:06:06;;;;;;;25.30;19.75;;;22.10;60.20;;;;;;20872705;28;20021;-21
2021/06/16 21:16:07;;;;;;;21.60;17.00;;;22.10;60.10;;;;;;20851396;28;20021;-20
2021/06/16 21:26:08;;;;;;;24.77;17.73;;;22.10;60.00;;;;;;20850855;28;20025;-20
2021/06/16 21:36:09;;;;;;;23.13;17.27;;;22.10;59.80;;;;;;20850700;28;20486;-21
2021/06/16 21:46:10;;;;;;;22.30;17.45;;;22.10;59.90;;;;;;20832769;28;20439;-21
2021/06/16 21:56:11;;;;;;;20.38;18.25;;;22.10;59.80;;;;;;20841734;28;20139;-21
2021/06/16 22:06:11;;;;;;;19.38;17.25;;;22.10;59.70;;;;;;20801255;28;20029;-21
2021/06/16 22:16:12;;;;;;;18.08;15.68;;;22.10;59.70;;;;;;20824614;28;20079;-21
2021/06/16 22:26:12;;;;;;;23.00;16.50;;;22.00;60.00;;;;;;20859657;28;20619;-21
2021/06/16 22:36:13;;;;;;;19.10;16.90;;;22.00;60.20;;;;;;20857904;28;20112;-21
2021/06/16 22:46:14;;;;;;;20.08;15.65;;;22.00;60.50;;;;;;20846214;28;20057;-21
2021/06/16 22:56:14;;;;;;;18.43;16.10;;;22.00;61.00;;;;;;20856018;28;20038;-20
2021/06/16 23:06:15;;;;;;;17.55;15.65;;;22.00;61.10;;;;;;20857253;28;20492;-21
2021/06/16 23:16:15;;;;;;;16.08;14.20;;;22.00;61.10;;;;;;20874892;28;20109;-20
2021/06/16 23:26:16;;;;;;;17.43;14.37;;;22.00;61.10;;;;;;20876561;28;20036;-21
2021/06/16 23:36:17;;;;;;;17.90;15.80;;;22.00;61.10;;;;;;20862483;28;20026;-21
2021/06/16 23:46:17;;;;;;;17.55;15.35;;;22.00;61.20;;;;;;20862704;28;20495;-21
2021/06/16 23:56:18;;;;;;;18.10;13.65;;;22.00;61.80;;;;;;20865605;28;20037;-21
